createdAt,value
2023-04-14T00:01:08.492Z,82
2023-04-14T00:02:08.821Z,82
2023-04-14T00:03:08.239Z,82
2023-04-14T00:04:08.405Z,83
2023-04-14T00:05:08.293Z,83
2023-04-14T00:06:07.953Z,83
2023-04-14T00:07:07.861Z,83
2023-04-14T00:08:08.000Z,83
2023-04-14T00:09:08.674Z,83
2023-04-14T00:10:07.985Z,83
2023-04-14T00:11:08.066Z,83
2023-04-14T00:12:08.330Z,83
2023-04-14T00:13:08.583Z,83
2023-04-14T00:14:08.573Z,83
2023-04-14T00:15:07.881Z,83
2023-04-14T00:16:08.079Z,83
2023-04-14T00:17:08.249Z,83
2023-04-14T00:18:08.749Z,83
2023-04-14T00:19:07.809Z,83
2023-04-14T00:21:08.048Z,83
2023-04-14T00:22:08.380Z,83
2023-04-14T00:23:08.545Z,83
2023-04-14T00:24:07.925Z,83
2023-04-14T00:25:08.189Z,83
2023-04-14T00:26:08.571Z,83
2023-04-14T00:27:07.829Z,83
2023-04-14T00:28:08.075Z,83
2023-04-14T00:29:08.291Z,83
2023-04-14T00:30:08.606Z,83
2023-04-14T00:31:08.906Z,83
2023-04-14T00:32:08.190Z,83
2023-04-14T00:33:08.096Z,83
2023-04-14T00:34:08.723Z,83
2023-04-14T00:35:07.896Z,83
2023-04-14T00:36:08.396Z,83
2023-04-14T00:38:08.842Z,83
2023-04-14T00:39:07.931Z,84
2023-04-14T00:40:08.159Z,84
2023-04-14T00:41:08.369Z,84
2023-04-14T00:42:08.728Z,84
2023-04-14T00:43:07.850Z,84
2023-04-14T00:44:08.151Z,84
2023-04-14T00:45:08.344Z,84
2023-04-14T00:46:08.514Z,84
2023-04-14T00:47:07.813Z,84
2023-04-14T00:48:08.017Z,84
2023-04-14T00:49:08.372Z,84
2023-04-14T00:50:08.585Z,84
2023-04-14T00:51:08.658Z,84
2023-04-14T00:52:07.823Z,84
2023-04-14T00:53:08.030Z,84
2023-04-14T00:54:08.196Z,84
2023-04-14T00:55:08.637Z,84
2023-04-14T00:56:07.783Z,84
2023-04-14T00:57:08.244Z,84
2023-04-14T00:58:08.487Z,84
2023-04-14T00:59:08.713Z,84
2023-04-14T01:01:08.128Z,84
2023-04-14T01:02:08.511Z,84
2023-04-14T01:03:09.053Z,84
2023-04-14T01:04:07.912Z,84
2023-04-14T01:05:08.593Z,84
2023-04-14T01:06:08.248Z,84
2023-04-14T01:07:08.821Z,84
2023-04-14T01:08:08.001Z,84
2023-04-14T01:09:07.995Z,84
2023-04-14T01:10:08.144Z,84
2023-04-14T01:11:08.519Z,84
2023-04-14T01:12:08.581Z,84
2023-04-14T01:13:07.901Z,84
2023-04-14T01:14:08.263Z,84
2023-04-14T01:15:08.464Z,84
2023-04-14T01:16:07.997Z,84
2023-04-14T01:17:08.146Z,84
2023-04-14T01:18:08.428Z,84
2023-04-14T01:19:08.654Z,84
2023-04-14T01:20:07.981Z,84
2023-04-14T01:21:08.076Z,84
2023-04-14T01:23:08.463Z,84
2023-04-14T01:24:08.797Z,84
2023-04-14T01:25:08.072Z,84
2023-04-14T01:26:08.160Z,84
2023-04-14T01:27:08.392Z,85
2023-04-14T01:28:08.672Z,85
2023-04-14T01:30:08.133Z,85
2023-04-14T01:31:08.668Z,85
2023-04-14T01:32:08.637Z,85
2023-04-14T01:33:08.021Z,85
2023-04-14T01:35:08.431Z,85
2023-04-14T01:37:08.192Z,85
2023-04-14T01:38:08.490Z,85
2023-04-14T01:39:08.791Z,85
2023-04-14T01:40:08.078Z,85
2023-04-14T01:41:08.119Z,85
2023-04-14T01:42:08.336Z,85
2023-04-14T01:43:08.593Z,85
2023-04-14T01:44:07.985Z,85
2023-04-14T01:45:08.251Z,85
2023-04-14T01:47:08.451Z,85
2023-04-14T01:48:08.956Z,85
2023-04-14T01:51:08.455Z,85
2023-04-14T01:52:08.736Z,85
2023-04-14T01:53:08.025Z,85
2023-04-14T01:54:08.189Z,85
2023-04-14T01:55:08.721Z,85
2023-04-14T01:56:07.867Z,86
2023-04-14T01:57:07.933Z,85
2023-04-14T01:58:08.285Z,86
2023-04-14T01:59:08.535Z,86
2023-04-14T02:00:08.001Z,86
2023-04-14T02:01:08.206Z,86
2023-04-14T02:02:08.723Z,86
2023-04-14T02:03:08.028Z,86
2023-04-14T02:05:08.340Z,86
2023-04-14T02:06:08.773Z,86
2023-04-14T02:07:07.990Z,86
2023-04-14T02:08:08.147Z,86
2023-04-14T02:09:08.558Z,86
2023-04-14T02:10:08.751Z,86
2023-04-14T02:11:07.874Z,86
2023-04-14T02:12:07.739Z,86
2023-04-14T02:13:08.126Z,86
2023-04-14T02:14:08.215Z,86
2023-04-14T02:15:08.421Z,86
2023-04-14T02:16:08.863Z,86
2023-04-14T02:17:07.957Z,86
2023-04-14T02:18:08.287Z,86
2023-04-14T02:19:08.250Z,86
2023-04-14T02:20:08.885Z,86
2023-04-14T02:21:07.633Z,86
2023-04-14T02:22:08.467Z,86
2023-04-14T02:23:08.512Z,86
2023-04-14T02:24:07.848Z,86
2023-04-14T02:25:08.743Z,86
2023-04-14T02:26:07.899Z,86
2023-04-14T02:27:08.019Z,86
2023-04-14T02:28:08.192Z,86
2023-04-14T02:29:08.427Z,86
2023-04-14T02:30:08.652Z,86
2023-04-14T02:33:08.636Z,86
2023-04-14T02:34:07.650Z,86
2023-04-14T02:35:08.275Z,86
2023-04-14T02:36:08.470Z,86
2023-04-14T02:37:08.744Z,86
2023-04-14T02:38:07.878Z,86
2023-04-14T02:39:08.041Z,86
2023-04-14T02:40:08.261Z,86
2023-04-14T02:41:07.837Z,86
2023-04-14T02:42:07.950Z,86
2023-04-14T02:43:08.016Z,86
2023-04-14T02:44:08.663Z,86
2023-04-14T02:45:07.774Z,86
2023-04-14T02:46:08.134Z,87
2023-04-14T02:47:08.172Z,87
2023-04-14T02:48:08.491Z,87
2023-04-14T02:49:09.288Z,87
2023-04-14T02:50:08.062Z,87
2023-04-14T02:51:08.157Z,87
2023-04-14T02:52:08.488Z,87
2023-04-14T02:53:08.796Z,87
2023-04-14T02:54:08.120Z,87
2023-04-14T02:55:08.448Z,87
2023-04-14T02:56:08.346Z,87
2023-04-14T02:57:08.219Z,87
2023-04-14T02:58:08.578Z,87
2023-04-14T02:59:07.927Z,87
2023-04-14T03:00:08.028Z,87
2023-04-14T03:02:08.788Z,87
2023-04-14T03:03:08.148Z,87
2023-04-14T03:04:08.221Z,87
2023-04-14T03:05:08.687Z,87
2023-04-14T03:06:08.565Z,87
2023-04-14T03:07:07.986Z,87
2023-04-14T03:08:08.411Z,87
2023-04-14T03:09:08.433Z,87
2023-04-14T03:10:08.593Z,87
2023-04-14T03:11:08.623Z,87
2023-04-14T03:12:07.727Z,87
2023-04-14T03:14:08.472Z,87
2023-04-14T03:15:08.766Z,87
2023-04-14T03:16:08.020Z,87
2023-04-14T03:17:08.204Z,87
2023-04-14T03:18:08.536Z,87
2023-04-14T03:19:07.921Z,87
2023-04-14T03:20:08.388Z,87
2023-04-14T03:21:08.005Z,87
2023-04-14T03:22:08.494Z,87
2023-04-14T03:23:08.731Z,87
2023-04-14T03:24:08.003Z,87
2023-04-14T03:25:08.275Z,87
2023-04-14T03:26:07.944Z,87
2023-04-14T03:27:08.070Z,87
2023-04-14T03:28:08.153Z,87
2023-04-14T03:30:07.944Z,87
2023-04-14T03:31:08.646Z,87
2023-04-14T03:32:08.781Z,87
2023-04-14T03:33:07.993Z,87
2023-04-14T03:34:08.067Z,87
2023-04-14T03:37:08.205Z,87
2023-04-14T03:38:08.360Z,87
2023-04-14T03:40:07.909Z,87
2023-04-14T03:41:08.165Z,87
2023-04-14T03:44:07.732Z,87
2023-04-14T03:45:07.924Z,87
2023-04-14T03:46:08.977Z,87
2023-04-14T03:47:08.723Z,87
2023-04-14T03:48:08.516Z,87
2023-04-14T03:49:07.810Z,87
2023-04-14T03:50:08.107Z,87
2023-04-14T03:51:08.212Z,87
2023-04-14T03:52:08.469Z,87
2023-04-14T03:53:08.634Z,87
2023-04-14T03:54:08.097Z,87
2023-04-14T03:55:08.310Z,87
2023-04-14T03:56:08.195Z,87
2023-04-14T03:57:08.074Z,87
2023-04-14T03:58:08.658Z,87
2023-04-14T03:59:09.609Z,87
2023-04-14T04:00:08.009Z,87
2023-04-14T04:01:08.378Z,87
2023-04-14T04:02:08.719Z,87
2023-04-14T04:03:08.168Z,87
2023-04-14T04:04:08.301Z,87
2023-04-14T04:05:08.332Z,87
2023-04-14T04:06:08.279Z,87
2023-04-14T04:07:08.782Z,87
2023-04-14T04:08:08.005Z,87
2023-04-14T04:09:08.003Z,87
2023-04-14T04:10:08.428Z,87
2023-04-14T04:11:08.667Z,87
2023-04-14T04:12:07.860Z,87
2023-04-14T04:13:08.195Z,87
2023-04-14T04:14:08.521Z,87
2023-04-14T04:15:07.985Z,87
2023-04-14T04:16:08.262Z,87
2023-04-14T04:17:08.562Z,87
2023-04-14T04:18:07.837Z,87
2023-04-14T04:19:08.134Z,87
2023-04-14T04:20:09.628Z,87
2023-04-14T04:21:08.198Z,87
2023-04-14T04:22:08.357Z,87
2023-04-14T04:23:08.725Z,87
2023-04-14T04:24:08.023Z,87
2023-04-14T04:25:08.165Z,87
2023-04-14T04:26:08.618Z,87
2023-04-14T04:27:20.586Z,87
2023-04-14T04:28:07.801Z,87
2023-04-14T04:29:08.290Z,87
2023-04-14T04:30:08.427Z,87
2023-04-14T04:31:08.407Z,87
2023-04-14T04:32:08.697Z,87
2023-04-14T04:33:07.739Z,87
2023-04-14T04:34:08.205Z,87
2023-04-14T04:35:08.448Z,87
2023-04-14T04:36:08.826Z,87
2023-04-14T04:37:07.944Z,87
2023-04-14T04:38:08.382Z,87
2023-04-14T04:39:08.561Z,87
2023-04-14T04:40:08.864Z,87
2023-04-14T04:41:07.933Z,87
2023-04-14T04:42:08.234Z,87
2023-04-14T04:43:08.323Z,87
2023-04-14T04:44:08.559Z,87
2023-04-14T04:45:08.604Z,87
2023-04-14T04:46:07.958Z,87
2023-04-14T04:47:08.131Z,87
2023-04-14T04:48:08.485Z,87
2023-04-14T04:49:08.581Z,87
2023-04-14T04:50:07.856Z,87
2023-04-14T04:51:08.164Z,87
2023-04-14T04:52:08.419Z,87
2023-04-14T04:53:08.765Z,87
2023-04-14T04:54:08.067Z,87
2023-04-14T04:55:08.266Z,87
2023-04-14T04:56:07.940Z,87
2023-04-14T04:57:07.239Z,87
2023-04-14T04:58:08.368Z,87
2023-04-14T04:59:08.623Z,88
2023-04-14T05:00:07.816Z,88
2023-04-14T05:01:08.237Z,88
2023-04-14T05:02:08.380Z,88
2023-04-14T05:03:08.696Z,88
2023-04-14T05:04:08.547Z,88
2023-04-14T05:05:07.787Z,88
2023-04-14T05:06:08.083Z,88
2023-04-14T05:07:08.476Z,88
2023-04-14T05:08:08.583Z,88
2023-04-14T05:09:06.973Z,88
2023-04-14T05:10:08.043Z,88
2023-04-14T05:11:08.351Z,88
2023-04-14T05:12:08.625Z,88
2023-04-14T05:13:08.336Z,88
2023-04-14T05:14:08.249Z,88
2023-04-14T05:15:08.447Z,88
2023-04-14T05:16:08.566Z,88
2023-04-14T05:17:07.881Z,88
2023-04-14T05:18:08.056Z,88
2023-04-14T05:19:08.316Z,88
2023-04-14T05:20:08.679Z,88
2023-04-14T05:21:08.087Z,88
2023-04-14T05:22:08.498Z,88
2023-04-14T05:23:08.792Z,88
2023-04-14T05:24:07.964Z,88
2023-04-14T05:25:08.180Z,88
2023-04-14T05:26:51.606Z,88
2023-04-14T05:27:16.833Z,88
2023-04-14T05:29:08.448Z,88
2023-04-14T05:30:08.595Z,88
2023-04-14T05:31:07.822Z,88
2023-04-14T05:32:07.873Z,88
2023-04-14T05:33:08.262Z,88
2023-04-14T05:34:08.321Z,88
2023-04-14T05:35:07.819Z,88
2023-04-14T05:36:08.868Z,88
2023-04-14T05:37:08.014Z,88
2023-04-14T05:38:08.229Z,88
2023-04-14T05:39:08.416Z,88
2023-04-14T05:40:07.704Z,88
2023-04-14T05:41:08.130Z,88
2023-04-14T05:42:08.027Z,88
2023-04-14T05:43:08.316Z,88
2023-04-14T05:44:07.991Z,88
2023-04-14T05:45:08.249Z,88
2023-04-14T05:46:08.190Z,88
2023-04-14T05:47:08.290Z,88
2023-04-14T05:48:08.410Z,88
2023-04-14T05:50:07.831Z,88
2023-04-14T05:51:07.931Z,88
2023-04-14T05:52:08.473Z,88
2023-04-14T05:53:08.670Z,88
2023-04-14T05:54:07.758Z,88
2023-04-14T05:56:08.256Z,88
2023-04-14T05:57:08.538Z,88
2023-04-14T05:58:07.898Z,88
2023-04-14T05:59:08.137Z,88
2023-04-14T06:00:08.214Z,88
2023-04-14T06:01:08.275Z,88
2023-04-14T06:04:09.648Z,88
2023-04-14T06:05:08.758Z,88
2023-04-14T06:06:08.581Z,88
2023-04-14T06:07:07.755Z,88
2023-04-14T06:08:08.097Z,88
2023-04-14T06:09:08.465Z,88
2023-04-14T06:10:08.434Z,88
2023-04-14T06:11:07.632Z,88
2023-04-14T06:12:08.045Z,88
2023-04-14T06:13:08.168Z,88
2023-04-14T06:14:08.346Z,88
2023-04-14T06:15:08.466Z,88
2023-04-14T06:16:07.902Z,88
2023-04-14T06:17:08.111Z,88
2023-04-14T06:18:08.644Z,88
2023-04-14T06:19:07.773Z,88
2023-04-14T06:20:07.918Z,88
2023-04-14T06:21:08.610Z,88
2023-04-14T06:22:07.833Z,88
2023-04-14T06:23:08.129Z,87
2023-04-14T06:24:08.513Z,88
2023-04-14T06:25:08.975Z,88
2023-04-14T06:26:08.660Z,88
2023-04-14T06:27:07.936Z,88
2023-04-14T06:28:07.987Z,88
2023-04-14T06:29:08.333Z,88
2023-04-14T06:30:08.446Z,88
2023-04-14T06:31:08.381Z,88
2023-04-14T06:32:08.921Z,88
2023-04-14T06:33:08.044Z,88
2023-04-14T06:34:08.088Z,88
2023-04-14T06:35:10.658Z,88
2023-04-14T06:36:07.927Z,88
2023-04-14T06:37:08.364Z,88
2023-04-14T06:38:08.415Z,88
2023-04-14T06:39:07.962Z,88
2023-04-14T06:40:08.269Z,88
2023-04-14T06:41:08.366Z,88
2023-04-14T06:42:07.825Z,88
2023-04-14T06:43:08.229Z,88
2023-04-14T06:44:08.259Z,88
2023-04-14T06:45:08.568Z,88
2023-04-14T06:46:08.351Z,88
2023-04-14T06:47:08.448Z,88
2023-04-14T06:48:08.675Z,87
2023-04-14T06:49:07.911Z,87
2023-04-14T06:50:08.158Z,87
2023-04-14T06:51:08.547Z,87
2023-04-14T06:52:07.883Z,87
2023-04-14T06:54:08.195Z,87
2023-04-14T06:55:07.776Z,87
2023-04-14T06:56:08.282Z,87
2023-04-14T06:57:08.620Z,87
2023-04-14T06:58:07.925Z,87
2023-04-14T06:59:08.032Z,87
2023-04-14T07:00:08.573Z,87
2023-04-14T07:01:08.609Z,87
2023-04-14T07:02:07.953Z,87
2023-04-14T07:03:08.480Z,87
2023-04-14T07:04:10.261Z,87
2023-04-14T07:05:09.070Z,87
2023-04-14T07:06:08.154Z,87
2023-04-14T07:07:08.247Z,87
2023-04-14T07:08:08.452Z,87
2023-04-14T07:09:08.730Z,87
2023-04-14T07:10:07.954Z,87
2023-04-14T07:11:08.039Z,87
2023-04-14T07:12:08.426Z,87
2023-04-14T07:13:08.782Z,87
2023-04-14T07:14:07.920Z,87
2023-04-14T07:15:08.176Z,87
2023-04-14T07:16:08.420Z,87
2023-04-14T07:17:08.460Z,87
2023-04-14T07:18:07.949Z,87
2023-04-14T07:19:08.041Z,87
2023-04-14T07:20:08.320Z,87
2023-04-14T07:21:08.640Z,87
2023-04-14T07:22:07.760Z,87
2023-04-14T07:23:08.139Z,87
2023-04-14T07:24:08.212Z,87
2023-04-14T07:25:08.513Z,87
2023-04-14T07:26:08.282Z,87
2023-04-14T07:27:08.702Z,87
2023-04-14T07:28:07.617Z,87
2023-04-14T07:29:08.127Z,87
2023-04-14T07:30:08.399Z,87
2023-04-14T07:31:07.774Z,87
2023-04-14T07:32:08.148Z,87
2023-04-14T07:33:08.387Z,87
2023-04-14T07:34:08.695Z,87
2023-04-14T07:35:07.921Z,87
2023-04-14T07:36:08.140Z,87
2023-04-14T07:37:08.405Z,87
2023-04-14T07:38:08.295Z,87
2023-04-14T07:39:08.411Z,87
2023-04-14T07:41:08.164Z,87
2023-04-14T07:42:08.321Z,87
2023-04-14T07:43:08.632Z,87
2023-04-14T07:44:08.673Z,87
2023-04-14T07:45:08.107Z,87
2023-04-14T07:46:08.412Z,87
2023-04-14T07:47:08.607Z,87
2023-04-14T07:48:08.874Z,87
2023-04-14T07:50:08.050Z,87
2023-04-14T07:51:08.293Z,87
2023-04-14T07:52:08.480Z,87
2023-04-14T07:54:07.811Z,87
2023-04-14T07:55:08.041Z,87
2023-04-14T07:56:08.085Z,87
2023-04-14T07:57:08.131Z,87
2023-04-14T07:58:08.563Z,87
2023-04-14T07:59:07.928Z,87
2023-04-14T08:00:08.092Z,87
2023-04-14T08:01:08.208Z,87
2023-04-14T08:02:08.744Z,87
2023-04-14T08:03:08.830Z,87
2023-04-14T08:04:08.208Z,87
2023-04-14T08:05:08.210Z,87
2023-04-14T08:06:08.242Z,87
2023-04-14T08:07:08.533Z,87
2023-04-14T08:08:07.766Z,87
2023-04-14T08:09:07.951Z,87
2023-04-14T08:12:08.585Z,87
2023-04-14T08:13:07.848Z,87
2023-04-14T08:14:08.250Z,87
2023-04-14T08:15:08.442Z,87
2023-04-14T08:16:08.875Z,87
2023-04-14T08:17:07.794Z,87
2023-04-14T08:18:08.111Z,87
2023-04-14T08:19:08.294Z,87
2023-04-14T08:20:08.760Z,87
2023-04-14T08:21:08.275Z,87
2023-04-14T08:22:08.456Z,87
2023-04-14T08:23:08.675Z,87
2023-04-14T08:24:07.799Z,87
2023-04-14T08:25:08.074Z,87
2023-04-14T08:26:08.119Z,87
2023-04-14T08:28:08.339Z,87
2023-04-14T08:29:08.677Z,87
2023-04-14T08:30:09.557Z,87
2023-04-14T08:31:08.335Z,87
2023-04-14T08:32:08.973Z,87
2023-04-14T08:33:08.033Z,87
2023-04-14T08:34:08.073Z,87
2023-04-14T08:35:42.390Z,87
2023-04-14T08:36:07.954Z,87
2023-04-14T08:37:08.024Z,87
2023-04-14T08:38:08.213Z,87
2023-04-14T08:39:08.175Z,87
2023-04-14T08:40:08.811Z,87
2023-04-14T08:41:07.736Z,87
2023-04-14T08:42:08.011Z,87
2023-04-14T08:43:08.422Z,87
2023-04-14T08:44:08.553Z,87
2023-04-14T08:45:08.051Z,87
2023-04-14T08:46:08.515Z,87
2023-04-14T08:47:08.164Z,87
2023-04-14T08:48:08.771Z,87
2023-04-14T08:50:08.055Z,87
2023-04-14T08:51:08.161Z,87
2023-04-14T08:52:08.634Z,87
2023-04-14T08:53:07.873Z,87
2023-04-14T08:54:08.142Z,87
2023-04-14T08:55:08.214Z,87
2023-04-14T08:56:08.206Z,87
2023-04-14T08:57:08.395Z,87
2023-04-14T08:58:07.850Z,87
2023-04-14T08:59:08.206Z,87
2023-04-14T09:00:08.303Z,87
2023-04-14T09:01:08.221Z,87
2023-04-14T09:02:09.010Z,87
2023-04-14T09:03:09.242Z,87
2023-04-14T09:04:08.866Z,87
2023-04-14T09:05:08.138Z,87
2023-04-14T09:06:08.453Z,87
2023-04-14T09:07:08.789Z,87
2023-04-14T09:08:08.026Z,87
2023-04-14T09:09:08.140Z,87
2023-04-14T09:10:08.513Z,87
2023-04-14T09:11:08.694Z,87
2023-04-14T09:12:08.188Z,87
2023-04-14T09:13:08.320Z,87
2023-04-14T09:14:08.672Z,87
2023-04-14T09:15:07.941Z,87
2023-04-14T09:16:07.811Z,87
2023-04-14T09:17:08.191Z,87
2023-04-14T09:18:08.356Z,87
2023-04-14T09:19:09.687Z,87
2023-04-14T09:20:41.558Z,87
2023-04-14T09:21:55.358Z,87
2023-04-14T09:23:09.700Z,87
2023-04-14T09:24:08.960Z,87
2023-04-14T09:25:08.127Z,87
2023-04-14T09:26:08.196Z,87
2023-04-14T09:27:08.255Z,87
2023-04-14T09:28:08.656Z,87
2023-04-14T09:29:07.689Z,87
2023-04-14T09:30:08.325Z,87
2023-04-14T09:31:08.655Z,86
2023-04-14T09:32:08.638Z,86
2023-04-14T09:33:08.059Z,86
2023-04-14T09:34:08.331Z,86
2023-04-14T09:35:08.566Z,86
2023-04-14T09:36:08.035Z,86
2023-04-14T09:37:08.115Z,86
2023-04-14T09:38:08.314Z,86
2023-04-14T09:39:08.726Z,86
2023-04-14T09:40:08.068Z,86
2023-04-14T09:41:08.240Z,86
2023-04-14T09:42:08.500Z,86
2023-04-14T09:43:08.536Z,86
2023-04-14T09:44:07.966Z,86
2023-04-14T09:45:08.045Z,86
2023-04-14T09:46:08.616Z,86
2023-04-14T09:47:07.651Z,86
2023-04-14T09:48:07.986Z,86
2023-04-14T09:49:08.391Z,85
2023-04-14T09:51:08.480Z,85
2023-04-14T09:52:08.568Z,85
2023-04-14T09:53:08.867Z,85
2023-04-14T09:54:08.589Z,85
2023-04-14T09:55:08.006Z,85
2023-04-14T09:56:08.295Z,85
2023-04-14T09:57:08.618Z,85
2023-04-14T09:58:07.849Z,85
2023-04-14T09:59:08.525Z,85
2023-04-14T10:00:08.296Z,85
2023-04-14T10:01:08.749Z,85
2023-04-14T10:02:09.074Z,85
2023-04-14T10:03:08.218Z,84
2023-04-14T10:04:08.401Z,84
2023-04-14T10:05:08.780Z,85
2023-04-14T10:06:08.044Z,85
2023-04-14T10:07:08.027Z,84
2023-04-14T10:08:08.454Z,84
2023-04-14T10:09:08.597Z,84
2023-04-14T10:10:07.975Z,84
2023-04-14T10:11:08.052Z,84
2023-04-14T10:12:11.626Z,84
2023-04-14T10:13:08.767Z,84
2023-04-14T10:14:07.951Z,84
2023-04-14T10:15:08.798Z,84
2023-04-14T10:16:08.121Z,84
2023-04-14T10:17:08.141Z,84
2023-04-14T10:18:08.541Z,84
2023-04-14T10:19:09.198Z,84
2023-04-14T10:20:08.117Z,84
2023-04-14T10:21:07.899Z,84
2023-04-14T10:22:08.481Z,84
2023-04-14T10:23:08.603Z,84
2023-04-14T10:24:08.881Z,84
2023-04-14T10:25:08.133Z,84
2023-04-14T10:26:07.988Z,84
2023-04-14T10:27:08.390Z,84
2023-04-14T10:28:08.597Z,84
2023-04-14T10:29:08.104Z,84
2023-04-14T10:30:08.260Z,84
2023-04-14T10:31:08.660Z,84
2023-04-14T10:32:09.001Z,84
2023-04-14T10:33:08.050Z,84
2023-04-14T10:35:08.276Z,84
2023-04-14T10:36:08.680Z,84
2023-04-14T10:37:08.101Z,84
2023-04-14T10:39:08.177Z,84
2023-04-14T10:40:08.599Z,84
2023-04-14T10:41:07.797Z,84
2023-04-14T10:42:07.999Z,84
2023-04-14T10:43:08.207Z,84
2023-04-14T10:44:08.411Z,84
2023-04-14T10:45:08.761Z,84
2023-04-14T10:46:07.957Z,84
2023-04-14T10:47:08.676Z,84
2023-04-14T10:48:08.562Z,84
2023-04-14T10:49:07.779Z,84
2023-04-14T10:50:08.279Z,84
2023-04-14T10:51:08.406Z,84
2023-04-14T10:52:08.564Z,84
2023-04-14T10:53:07.864Z,84
2023-04-14T10:54:08.297Z,84
2023-04-14T10:55:08.466Z,84
2023-04-14T10:56:08.375Z,84
2023-04-14T10:57:08.304Z,83
2023-04-14T10:59:07.878Z,83
2023-04-14T11:00:08.271Z,83
2023-04-14T11:01:08.333Z,83
2023-04-14T11:02:08.754Z,83
2023-04-14T11:03:08.260Z,83
2023-04-14T11:04:08.421Z,83
2023-04-14T11:05:08.585Z,83
2023-04-14T11:06:08.476Z,83
2023-04-14T11:07:08.043Z,83
2023-04-14T11:08:08.187Z,83
2023-04-14T11:11:08.640Z,83
2023-04-14T11:12:08.139Z,83
2023-04-14T11:13:08.356Z,83
2023-04-14T11:14:08.495Z,83
2023-04-14T11:17:07.882Z,83
2023-04-14T11:18:08.003Z,83
2023-04-14T11:19:08.264Z,83
2023-04-14T11:20:08.595Z,83
2023-04-14T11:21:07.939Z,83
2023-04-14T11:22:08.057Z,83
2023-04-14T11:23:08.442Z,83
2023-04-14T11:24:08.588Z,83
2023-04-14T11:25:08.693Z,83
2023-04-14T11:26:07.909Z,83
2023-04-14T11:27:08.020Z,83
2023-04-14T11:28:08.275Z,83
2023-04-14T11:29:08.705Z,83
2023-04-14T11:30:07.794Z,83
2023-04-14T11:31:07.997Z,83
2023-04-14T11:32:08.396Z,83
2023-04-14T11:33:08.807Z,83
2023-04-14T11:35:08.486Z,83
2023-04-14T11:36:08.313Z,83
2023-04-14T11:37:08.320Z,83
2023-04-14T11:38:07.948Z,83
2023-04-14T11:39:08.102Z,83
2023-04-14T11:40:08.229Z,83
2023-04-14T11:41:07.708Z,83
2023-04-14T11:42:08.062Z,83
2023-04-14T11:43:08.335Z,83
2023-04-14T11:44:08.802Z,83
2023-04-14T11:45:08.052Z,83
2023-04-14T11:46:08.939Z,83
2023-04-14T11:47:07.945Z,83
2023-04-14T11:48:08.322Z,83
2023-04-14T11:49:08.427Z,83
2023-04-14T11:50:08.869Z,83
2023-04-14T11:51:08.475Z,83
2023-04-14T11:52:07.736Z,83
2023-04-14T11:53:08.030Z,83
2023-04-14T11:54:08.422Z,83
2023-04-14T11:55:08.469Z,83
2023-04-14T11:56:08.470Z,83
2023-04-14T11:57:08.574Z,83
2023-04-14T11:58:07.799Z,83
2023-04-14T11:59:08.056Z,82
2023-04-14T12:00:08.367Z,82
2023-04-14T12:01:08.710Z,82
2023-04-14T12:02:07.851Z,82
2023-04-14T12:03:08.573Z,82
2023-04-14T12:04:08.207Z,82
2023-04-14T12:05:08.521Z,82
2023-04-14T12:07:07.931Z,82
2023-04-14T12:08:08.134Z,82
2023-04-14T12:09:08.243Z,82
2023-04-14T12:10:08.828Z,82
2023-04-14T12:12:08.490Z,82
2023-04-14T12:13:08.262Z,82
2023-04-14T12:14:08.207Z,82
2023-04-14T12:16:07.715Z,82
2023-04-14T12:17:07.965Z,82
2023-04-14T12:18:08.072Z,82
2023-04-14T12:19:08.558Z,82
2023-04-14T12:20:08.611Z,82
2023-04-14T12:21:13.124Z,82
2023-04-14T12:22:07.846Z,82
2023-04-14T12:23:08.260Z,82
2023-04-14T12:24:08.495Z,82
2023-04-14T12:25:08.874Z,82
2023-04-14T12:26:08.148Z,82
2023-04-14T12:27:08.285Z,82
2023-04-14T12:28:08.623Z,82
2023-04-14T12:29:08.715Z,82
2023-04-14T12:30:07.757Z,82
2023-04-14T12:31:08.100Z,81
2023-04-14T12:32:08.493Z,81
2023-04-14T12:34:07.762Z,81
2023-04-14T12:35:08.101Z,81
2023-04-14T12:36:08.276Z,81
2023-04-14T12:37:08.618Z,81
2023-04-14T12:38:07.932Z,81
2023-04-14T12:39:08.350Z,81
2023-04-14T12:40:08.531Z,81
2023-04-14T12:41:07.945Z,81
2023-04-14T12:42:08.396Z,80
2023-04-14T12:43:08.527Z,80
2023-04-14T12:44:07.827Z,80
2023-04-14T12:45:07.988Z,80
2023-04-14T12:46:08.541Z,80
2023-04-14T12:47:08.628Z,80
2023-04-14T12:48:08.865Z,80
2023-04-14T12:49:07.993Z,80
2023-04-14T12:50:08.327Z,80
2023-04-14T12:51:07.803Z,80
2023-04-14T12:52:08.269Z,80
2023-04-14T12:53:08.283Z,80
2023-04-14T12:54:08.322Z,80
2023-04-14T12:55:08.732Z,80
2023-04-14T12:56:07.625Z,80
2023-04-14T12:57:07.911Z,80
2023-04-14T12:58:08.343Z,80
2023-04-14T13:00:08.716Z,80
2023-04-14T13:01:08.772Z,80
2023-04-14T13:02:08.087Z,80
2023-04-14T13:03:08.349Z,80
2023-04-14T13:04:08.488Z,80
2023-04-14T13:05:08.294Z,80
2023-04-14T13:06:08.459Z,80
2023-04-14T13:07:07.850Z,80
2023-04-14T13:08:08.034Z,79
2023-04-14T13:09:08.181Z,79
2023-04-14T13:10:08.482Z,79
2023-04-14T13:11:08.686Z,79
2023-04-14T13:12:07.964Z,79
2023-04-14T13:14:08.416Z,79
2023-04-14T13:15:07.885Z,79
2023-04-14T13:16:17.659Z,79
2023-04-14T13:18:08.583Z,79
2023-04-14T13:20:07.874Z,78
2023-04-14T13:21:08.303Z,78
2023-04-14T13:22:08.465Z,78
2023-04-14T13:23:08.754Z,78
2023-04-14T13:24:07.709Z,78
2023-04-14T13:25:08.142Z,78
2023-04-14T13:26:08.271Z,78
2023-04-14T13:27:08.488Z,78
2023-04-14T13:28:08.601Z,78
2023-04-14T13:30:08.079Z,78
2023-04-14T13:31:08.168Z,78
2023-04-14T13:32:08.574Z,78
2023-04-14T13:33:08.878Z,78
2023-04-14T13:34:07.897Z,78
2023-04-14T13:35:07.991Z,78
2023-04-14T13:36:08.116Z,78
2023-04-14T13:37:08.524Z,78
2023-04-14T13:38:08.688Z,78
2023-04-14T13:39:07.772Z,78
2023-04-14T13:40:07.989Z,78
2023-04-14T13:41:08.386Z,78
2023-04-14T13:42:08.415Z,78
2023-04-14T13:43:08.648Z,78
2023-04-14T13:44:08.010Z,78
2023-04-14T13:45:08.312Z,78
2023-04-14T13:47:08.601Z,78
2023-04-14T13:48:08.732Z,78
2023-04-14T13:49:08.037Z,78
2023-04-14T13:50:08.444Z,78
2023-04-14T13:51:08.093Z,77
2023-04-14T13:52:08.218Z,77
2023-04-14T13:53:08.139Z,77
2023-04-14T13:54:08.464Z,77
2023-04-14T13:55:07.824Z,77
2023-04-14T13:56:08.072Z,77
2023-04-14T13:57:08.493Z,77
2023-04-14T13:58:08.826Z,77
2023-04-14T13:59:07.977Z,77
2023-04-14T14:00:08.163Z,77
2023-04-14T14:01:08.245Z,77
2023-04-14T14:02:08.832Z,77
2023-04-14T14:03:08.263Z,77
2023-04-14T14:04:08.484Z,77
2023-04-14T14:05:08.380Z,77
2023-04-14T14:06:07.822Z,77
2023-04-14T14:07:07.944Z,77
2023-04-14T14:08:08.247Z,77
2023-04-14T14:09:09.293Z,77
2023-04-14T14:10:08.715Z,77
2023-04-14T14:11:07.908Z,76
2023-04-14T14:12:08.194Z,76
2023-04-14T14:13:08.287Z,76
2023-04-14T14:14:08.769Z,76
2023-04-14T14:15:08.176Z,76
2023-04-14T14:16:08.563Z,76
2023-04-14T14:17:08.232Z,76
2023-04-14T14:18:08.667Z,76
2023-04-14T14:19:07.981Z,76
2023-04-14T14:20:08.487Z,76
2023-04-14T14:21:08.536Z,76
2023-04-14T14:22:07.851Z,76
2023-04-14T14:23:08.048Z,76
2023-04-14T14:24:08.358Z,76
2023-04-14T14:25:21.716Z,76
2023-04-14T14:26:07.882Z,76
2023-04-14T14:27:08.278Z,76
2023-04-14T14:28:08.500Z,76
2023-04-14T14:29:08.560Z,75
2023-04-14T14:30:07.869Z,75
2023-04-14T14:31:09.711Z,75
2023-04-14T14:32:08.854Z,75
2023-04-14T14:33:08.190Z,75
2023-04-14T14:34:08.742Z,75
2023-04-14T14:35:07.875Z,75
2023-04-14T14:36:08.000Z,75
2023-04-14T14:37:08.375Z,75
2023-04-14T14:38:08.552Z,75
2023-04-14T14:39:07.831Z,75
2023-04-14T14:40:08.132Z,75
2023-04-14T14:41:08.056Z,75
2023-04-14T14:42:08.056Z,75
2023-04-14T14:43:08.444Z,75
2023-04-14T14:44:08.972Z,75
2023-04-14T14:45:08.935Z,75
2023-04-14T14:46:08.691Z,75
2023-04-14T14:47:08.831Z,75
2023-04-14T14:48:07.908Z,75
2023-04-14T14:49:08.218Z,75
2023-04-14T14:50:10.831Z,75
2023-04-14T14:51:08.314Z,75
2023-04-14T14:52:08.511Z,75
2023-04-14T14:53:07.738Z,75
2023-04-14T14:54:12.739Z,74
2023-04-14T14:55:08.346Z,74
2023-04-14T14:56:08.588Z,74
2023-04-14T14:57:08.003Z,74
2023-04-14T14:58:07.980Z,74
2023-04-14T14:59:08.357Z,74
2023-04-14T15:00:08.509Z,74
2023-04-14T15:02:08.053Z,74
2023-04-14T15:03:08.288Z,74
2023-04-14T15:04:09.035Z,74
2023-04-14T15:05:08.465Z,74
2023-04-14T15:06:08.386Z,74
2023-04-14T15:07:07.599Z,74
2023-04-14T15:08:08.147Z,74
2023-04-14T15:09:08.428Z,74
2023-04-14T15:10:08.613Z,74
2023-04-14T15:11:08.813Z,74